Ouagadougou Airport Ouagadougou BF
ICAO: DFFD
IATA: OUA
Category: Medium
Scheduled Services: Yes

Elevation: 1037 ft
TransAlt. 3600 ft.

Airport Communications:
AG VOICE OUAGA RDO:120.3
OUAGA APP:118.1
OUAGA TWR:118.1

DFFD Zoom In..

If you have problems with the map follow the link
https://www.worldairports.se/pages/airport.php?
ICAO=DFFD

Runways:

(A) RW 04L length 9843 ft width 148 ft
ILS 110.10 / hdg 36

(B) RW 04R length 6234 ft width 98 ft
---- / hdg 36

(C) RW 22L length 6234 ft width 98 ft
---- / hdg 216

(D) RW 22R length 9843 ft width 148 ft
---- / hdg 216

Location; DFFD
Day. 21 / Time. 08.00 Zulu
* QNH: 1015
* Temperature: 22° c. 71.6°f.
* Wind from: 060° Speed 03 kn.
Dewpoint: 06° c.
Visibility: 2300 m.
No significant clouds are observed below 5000 ft.
Conditions: Widespread dust. No significant changes expected in the near future.

DFFD 210800Z 06003KT 2300 R04/1300 DU NSC 22/06 Q1015 NOSIG


Wind From 060°
Speed 03 kn.

 
 
jpsmedia worldairports.se 2020   terms of use